WEATHER DATA

YESTERDAY
Time Temp. Dewp. Hum. Bar.
00:09 23.5 16.3 64 1021.4
00:20 23.4 16.5 65 1021.4
00:29 23.3 16.4 65 1021.3
00:39 23.1 16.2 65 1021.4
00:50 23 16.1 65 1021.4
01:00 23 16.3 66 1021.1
01:10 22.8 16.1 66 1021.2
01:20 22.7 16 66 1021.2
01:30 22.5 16.1 67 1021.3
01:40 22.4 16 67 1021.2
01:50 22.1 15.9 68 1021.2
02:00 21.8 15.9 69 1021.1
02:10 21.5 15.8 70 1021.1
02:20 21.3 15.8 71 1021.4
02:30 21.1 15.6 71 1021.3
02:41 20.9 15.4 71 1021.1
02:50 20.8 15.6 72 1021.1
03:00 20.7 15.5 72 1021.2
03:11 20.7 15.5 72 1021.3
03:21 20.5 15.5 73 1021.4
03:30 20.5 15.5 73 1021.2
03:41 20.4 15.4 73 1021.3
03:51 20.4 15.6 74 1021.2
04:01 20.3 15.5 74 1021.3
04:11 20.2 15.4 74 1021.5
04:21 20.1 15.3 74 1021.5
04:30 20.1 15.5 75 1021.4
04:41 19.9 15.3 75 1021.2
04:51 19.9 15.3 75 1021.2
05:11 19.7 15.4 76 1021.2
05:21 19.5 15.2 76 1021.1
05:32 19.4 15.1 76 1021.1
05:42 19.3 15.2 77 1021.2
05:51 19.3 15.2 77 1021.2
06:02 19.3 15.2 77 1021.3
06:12 19.2 15.3 78 1021.3
06:22 19.2 15.3 78 1021.4
06:31 19.2 15.3 78 1021.3
06:42 19.1 15.2 78 1021.2
06:52 19.1 15.2 78 1021.4
07:02 19.1 15.4 79 1021.4
07:12 19.1 15.4 79 1021.5
07:22 19.1 15.4 79 1021.7
07:32 19.1 15.4 79 1021.7
07:42 19.1 15.4 79 1021.7
07:53 19.1 15.6 80 1021.8
08:03 19.2 15.7 80 1021.8
08:12 19.3 15.8 80 1021.7
08:23 19.3 15.6 79 1021.7
08:33 19.4 15.5 78 1021.7
08:43 19.6 15.5 77 1021.8
08:52 19.9 15.5 76 1021.9
09:13 20.1 15.1 73 1021.9
09:23 20.3 14.7 70 1021.9
09:33 20.5 13.9 66 1021.7
09:43 20.8 14 65 1021.9
09:53 21.1 13.8 63 1021.9
10:14 21.5 13.7 61 1022
10:23 21.7 13.9 61 1022
10:33 21.9 14 61 1021.9
10:44 22.1 14 60 1021.8
10:54 22.3 14.4 61 1021.9
11:13 22.7 14.8 61 1021.7
11:24 22.9 14.7 60 1021.6
11:34 23.1 14.9 60 1021.7
11:44 23.4 15.2 60 1021.8
11:54 23.6 15.4 60 1021.5
12:04 23.9 15.7 60 1021.5
12:14 24 15.8 60 1021.4
12:24 24.2 15.4 58 1021.4
12:35 24.4 15.1 56 1021.3
12:44 24.5 14.9 55 1021.2
12:54 24.6 14.7 54 1021.3
13:04 24.9 14.7 53 1021.1
13:15 25 14.8 53 1021.1
13:24 25.2 14.9 53 1020.7
13:34 25.4 14.8 52 1020.6
13:45 25.7 14.8 51 1020.7
13:55 25.9 15 51 1020.5
14:05 26.7 15.4 50 1020.4
14:15 26.9 15 48 1020.2
14:25 27 15.1 48 1020.4
14:35 27.3 15.3 48 1020.1
14:45 27.5 15.5 48 1019.9
14:55 27.8 15.5 47 1020
15:05 28.1 15.4 46 1019.9
15:15 28.3 15.6 46 1019.5
15:25 28.8 16 46 1019.6
15:35 28.9 15.8 45 1019.5
15:45 29.1 16 45 1019.4
15:55 29.4 15.5 43 1019.2
16:06 29.8 15.9 43 1019.1
16:16 29.8 15.9 43 1019
16:25 29.8 15.9 43 1018.9
16:36 30.1 15.8 42 1019.1
16:46 30 16.1 43 1018.9
16:56 30.3 16.3 43 1018.8
17:05 30.3 16 42 1018.8
17:16 30.3 16 42 1018.7
17:26 30.6 15.9 41 1018.8
17:36 30.6 15.5 40 1018.6
17:46 30.5 15.8 41 1018.8
17:56 30.6 15.9 41 1018.6
18:06 30.8 15.6 40 1018.5
18:16 30.8 16 41 1018.5
18:27 30.9 15.7 40 1018.6
18:36 31.3 16.1 40 1018.6
18:46 31.2 16 40 1018.3
18:57 31.2 16 40 1018.3
19:07 31.2 16 40 1018.2
19:17 31.4 16.6 41 1018.3
19:26 30.9 16.1 41 1018.3
19:37 30.9 16.1 41 1018.3
19:47 30.9 16.1 41 1018.3
19:57 30.8 16.4 42 1018.6
20:07 30.8 16.4 42 1018.7
20:17 30.7 16.3 42 1018.7
20:27 30 16.1 43 1018.8
20:37 29.7 16.2 44 1018.8
20:47 29.8 16.2 44 1019
20:57 29.9 16.3 44 1019.1
21:07 29.9 16.3 44 1019
21:18 29.7 16.5 45 1019.1
21:28 29.5 16.3 45 1019
21:37 29.3 16.5 46 1019.3
21:47 28.5 16.1 47 1019.3
21:58 28.4 16.3 48 1019.3
22:08 28.2 16.2 48 1019.3
22:17 28 16.3 49 1019.5
22:28 27.8 16.1 49 1019.4
22:38 27.4 15.4 48 1019.5
22:48 27.2 15.6 49 1019.5
22:58 27 16 51 1019.6
23:08 26.8 15.8 51 1019.7
23:18 26.5 15.9 52 1019.7
23:28 26.2 15.6 52 1019.9
23:39 26 15.7 53 1019.8
23:48 25.8 15.5 53 1019.7
23:58 25.4 15.1 53 1019.6

DAY STATISTIC

2018-08-19
TEMPERATURE
AVERAGE
24.8
HIGH
31.4
19:17
LOW
19.1
06:42
PRESSURE
AVERAGE
1020.4
HIGH
1022.0
10:14
LOW
1018.2
19:07
DEWPOINT
AVERAGE
15.6
HIGH
16.6
19:17
LOW
13.7
10:14
HUMIDITY
AVERAGE
58
HIGH
80
07:53
LOW
40
17:36
TEMPERATURE (°C)
LOW
19.1
HIGH
31.4
AVERAGE
24.8
PRESSURE (hpa)
LOW
1018.2
HIGH
1022.0
AVERAGE
1020.4
DEVICE